sensor_id;sensor_type;location;lat;lon;timestamp;pressure;altitude;pressure_sealevel;temperature;humidity
64080;BME280;51042;49.696;10.808;2022-11-15T00:00:01;98355.63;;;5.06;100.00
64080;BME280;51042;49.696;10.808;2022-11-15T00:02:28;98350.50;;;5.15;100.00
64080;BME280;51042;49.696;10.808;2022-11-15T00:04:53;98347.41;;;5.13;100.00
64080;BME280;51042;49.696;10.808;2022-11-15T00:07:19;98345.09;;;5.08;100.00
64080;BME280;51042;49.696;10.808;2022-11-15T00:09:44;98346.69;;;5.05;100.00
64080;BME280;51042;49.696;10.808;2022-11-15T00:12:09;98340.13;;;4.99;100.00
64080;BME280;51042;49.696;10.808;2022-11-15T00:14:34;98342.50;;;4.93;100.00
64080;BME280;51042;49.696;10.808;2022-11-15T00:17:00;98353.38;;;4.93;100.00
64080;BME280;51042;49.696;10.808;2022-11-15T00:19:25;98351.09;;;4.88;100.00
64080;BME280;51042;49.696;10.808;2022-11-15T00:21:50;98345.69;;;4.78;100.00
64080;BME280;51042;49.696;10.808;2022-11-15T00:24:16;98342.66;;;4.69;100.00
64080;BME280;51042;49.696;10.808;2022-11-15T00:26:41;98351.63;;;4.62;100.00
64080;BME280;51042;49.696;10.808;2022-11-15T00:29:06;98344.25;;;4.63;100.00
64080;BME280;51042;49.696;10.808;2022-11-15T00:31:32;98350.84;;;4.62;100.00
64080;BME280;51042;49.696;10.808;2022-11-15T00:33:57;98351.22;;;4.60;100.00
64080;BME280;51042;49.696;10.808;2022-11-15T00:36:22;98342.75;;;4.51;100.00
64080;BME280;51042;49.696;10.808;2022-11-15T00:38:48;98349.38;;;4.46;100.00
64080;BME280;51042;49.696;10.808;2022-11-15T00:41:13;98354.06;;;4.39;100.00
64080;BME280;51042;49.696;10.808;2022-11-15T00:43:38;98348.66;;;4.28;100.00
64080;BME280;51042;49.696;10.808;2022-11-15T00:46:05;98344.03;;;4.22;100.00
64080;BME280;51042;49.696;10.808;2022-11-15T00:48:31;98343.25;;;4.21;100.00
64080;BME280;51042;49.696;10.808;2022-11-15T00:50:57;98344.03;;;4.18;100.00
64080;BME280;51042;49.696;10.808;2022-11-15T00:53:22;98342.88;;;4.19;100.00
64080;BME280;51042;49.696;10.808;2022-11-15T00:55:48;98339.81;;;4.10;100.00
64080;BME280;51042;49.696;10.808;2022-11-15T00:58:13;98347.97;;;4.03;100.00
64080;BME280;51042;49.696;10.808;2022-11-15T01:00:38;98337.53;;;3.98;100.00
64080;BME280;51042;49.696;10.808;2022-11-15T01:03:03;98333.25;;;3.93;100.00
64080;BME280;51042;49.696;10.808;2022-11-15T01:05:29;98339.50;;;3.87;100.00
64080;BME280;51042;49.696;10.808;2022-11-15T01:07:54;98334.84;;;3.84;100.00
64080;BME280;51042;49.696;10.808;2022-11-15T01:10:21;98330.97;;;3.78;100.00
64080;BME280;51042;49.696;10.808;2022-11-15T01:12:47;98326.72;;;3.73;100.00
64080;BME280;51042;49.696;10.808;2022-11-15T01:15:12;98327.13;;;3.68;100.00
64080;BME280;51042;49.696;10.808;2022-11-15T01:17:38;98320.16;;;3.60;100.00
64080;BME280;51042;49.696;10.808;2022-11-15T01:20:03;98317.44;;;3.60;100.00
64080;BME280;51042;49.696;10.808;2022-11-15T01:22:29;98317.03;;;3.58;100.00
64080;BME280;51042;49.696;10.808;2022-11-15T01:24:55;98311.63;;;3.54;100.00
64080;BME280;51042;49.696;10.808;2022-11-15T01:27:20;98315.50;;;3.53;100.00
64080;BME280;51042;49.696;10.808;2022-11-15T01:29:46;98308.16;;;3.57;100.00
64080;BME280;51042;49.696;10.808;2022-11-15T01:32:11;98301.56;;;3.62;100.00
64080;BME280;51042;49.696;10.808;2022-11-15T01:34:36;98301.91;;;3.71;100.00
64080;BME280;51042;49.696;10.808;2022-11-15T01:37:02;98299.94;;;3.86;100.00
64080;BME280;51042;49.696;10.808;2022-11-15T01:39:27;98301.84;;;3.96;100.00
64080;BME280;51042;49.696;10.808;2022-11-15T01:41:53;98299.03;;;4.21;100.00
64080;BME280;51042;49.696;10.808;2022-11-15T01:47:00;98283.06;;;4.33;100.00
64080;BME280;51042;49.696;10.808;2022-11-15T01:49:28;98282.19;;;4.47;100.00
64080;BME280;51042;49.696;10.808;2022-11-15T01:51:57;98285.25;;;4.56;100.00
64080;BME280;51042;49.696;10.808;2022-11-15T01:54:25;98273.97;;;4.61;100.00
64080;BME280;51042;49.696;10.808;2022-11-15T01:56:52;98274.34;;;4.63;100.00
64080;BME280;51042;49.696;10.808;2022-11-15T01:59:38;98266.66;;;4.47;100.00
64080;BME280;51042;49.696;10.808;2022-11-15T02:02:07;98276.81;;;4.40;100.00
64080;BME280;51042;49.696;10.808;2022-11-15T02:04:34;98268.69;;;4.40;100.00
64080;BME280;51042;49.696;10.808;2022-11-15T02:07:03;98274.88;;;4.37;100.00
64080;BME280;51042;49.696;10.808;2022-11-15T02:09:30;98285.72;;;4.44;100.00
64080;BME280;51042;49.696;10.808;2022-11-15T02:11:55;98286.84;;;4.50;100.00
64080;BME280;51042;49.696;10.808;2022-11-15T02:14:22;98287.97;;;4.56;100.00
64080;BME280;51042;49.696;10.808;2022-11-15T02:17:12;98281.56;;;4.84;100.00
64080;BME280;51042;49.696;10.808;2022-11-15T02:22:46;98268.25;;;5.00;100.00
64080;BME280;51042;49.696;10.808;2022-11-15T02:28:48;98255.53;;;5.34;100.00
64080;BME280;51042;49.696;10.808;2022-11-15T02:33:51;98242.47;;;5.56;100.00
64080;BME280;51042;49.696;10.808;2022-11-15T02:36:40;98237.66;;;5.67;100.00
64080;BME280;51042;49.696;10.808;2022-11-15T02:42:00;98237.13;;;5.83;100.00
64080;BME280;51042;49.696;10.808;2022-11-15T02:44:33;98249.91;;;5.90;100.00
64080;BME280;51042;49.696;10.808;2022-11-15T02:47:04;98234.69;;;5.92;100.00
64080;BME280;51042;49.696;10.808;2022-11-15T02:49:48;98232.28;;;5.98;100.00
64080;BME280;51042;49.696;10.808;2022-11-15T02:52:17;98232.66;;;6.00;100.00
64080;BME280;51042;49.696;10.808;2022-11-15T02:54:54;98228.00;;;6.00;100.00
64080;BME280;51042;49.696;10.808;2022-11-15T03:00:05;98212.81;;;5.99;100.00
64080;BME280;51042;49.696;10.808;2022-11-15T03:02:40;98210.91;;;5.96;100.00
64080;BME280;51042;49.696;10.808;2022-11-15T03:11:08;98211.78;;;5.90;100.00
64080;BME280;51042;49.696;10.808;2022-11-15T03:16:30;98210.97;;;5.93;100.00
64080;BME280;51042;49.696;10.808;2022-11-15T03:21:46;98211.03;;;6.16;100.00
64080;BME280;51042;49.696;10.808;2022-11-15T03:24:14;98210.22;;;6.19;100.00
64080;BME280;51042;49.696;10.808;2022-11-15T03:26:42;98206.38;;;6.17;100.00
64080;BME280;51042;49.696;10.808;2022-11-15T03:29:13;98197.81;;;6.14;100.00
64080;BME280;51042;49.696;10.808;2022-11-15T03:31:44;98190.44;;;6.15;100.00
64080;BME280;51042;49.696;10.808;2022-11-15T03:34:19;98190.44;;;6.15;100.00
64080;BME280;51042;49.696;10.808;2022-11-15T03:36:52;98183.78;;;6.16;100.00
64080;BME280;51042;49.696;10.808;2022-11-15T03:39:18;98195.06;;;6.18;100.00
64080;BME280;51042;49.696;10.808;2022-11-15T03:42:04;98193.81;;;6.23;100.00
64080;BME280;51042;49.696;10.808;2022-11-15T03:44:44;98191.50;;;6.21;100.00
64080;BME280;51042;49.696;10.808;2022-11-15T03:47:18;98197.81;;;6.14;100.00
64080;BME280;51042;49.696;10.808;2022-11-15T03:49:52;98187.34;;;6.13;100.00
64080;BME280;51042;49.696;10.808;2022-11-15T03:52:22;98187.75;;;6.11;100.00
64080;BME280;51042;49.696;10.808;2022-11-15T03:54:52;98183.88;;;6.09;100.00
64080;BME280;51042;49.696;10.808;2022-11-15T03:57:19;98174.59;;;6.06;100.00
64080;BME280;51042;49.696;10.808;2022-11-15T03:59:44;98178.13;;;6.03;100.00
64080;BME280;51042;49.696;10.808;2022-11-15T04:02:10;98180.13;;;5.99;100.00
64080;BME280;51042;49.696;10.808;2022-11-15T04:04:36;98193.38;;;5.97;100.00
64080;BME280;51042;49.696;10.808;2022-11-15T04:07:01;98186.44;;;5.93;100.00
64080;BME280;51042;49.696;10.808;2022-11-15T04:09:27;98185.69;;;5.92;100.00
64080;BME280;51042;49.696;10.808;2022-11-15T04:11:52;98182.19;;;5.92;100.00
64080;BME280;51042;49.696;10.808;2022-11-15T04:14:17;98180.63;;;5.91;100.00
64080;BME280;51042;49.696;10.808;2022-11-15T04:16:43;98178.34;;;5.86;100.00
64080;BME280;51042;49.696;10.808;2022-11-15T04:19:08;98170.63;;;5.81;100.00
64080;BME280;51042;49.696;10.808;2022-11-15T04:21:52;98174.19;;;5.74;100.00
64080;BME280;51042;49.696;10.808;2022-11-15T04:24:35;98169.28;;;5.62;100.00
64080;BME280;51042;49.696;10.808;2022-11-15T04:27:01;98154.19;;;5.57;100.00
64080;BME280;51042;49.696;10.808;2022-11-15T04:29:26;98164.25;;;5.60;100.00
64080;BME280;51042;49.696;10.808;2022-11-15T04:32:03;98156.53;;;5.55;100.00
64080;BME280;51042;49.696;10.808;2022-11-15T04:34:30;98156.63;;;5.48;100.00
64080;BME280;51042;49.696;10.808;2022-11-15T04:36:56;98161.47;;;5.33;100.00
64080;BME280;51042;49.696;10.808;2022-11-15T04:39:37;98153.88;;;5.18;100.00
64080;BME280;51042;49.696;10.808;2022-11-15T04:42:02;98158.63;;;5.07;100.00
64080;BME280;51042;49.696;10.808;2022-11-15T04:44:28;98161.44;;;5.00;100.00
64080;BME280;51042;49.696;10.808;2022-11-15T04:46:53;98151.41;;;4.89;100.00
64080;BME280;51042;49.696;10.808;2022-11-15T04:49:19;98150.75;;;4.82;100.00
64080;BME280;51042;49.696;10.808;2022-11-15T04:51:44;98151.16;;;4.77;100.00
64080;BME280;51042;49.696;10.808;2022-11-15T04:54:10;98153.13;;;4.73;100.00
64080;BME280;51042;49.696;10.808;2022-11-15T04:56:35;98143.91;;;4.63;100.00
64080;BME280;51042;49.696;10.808;2022-11-15T04:59:00;98142.38;;;4.62;100.00
64080;BME280;51042;49.696;10.808;2022-11-15T05:01:26;98151.72;;;4.58;100.00
64080;BME280;51042;49.696;10.808;2022-11-15T05:03:51;98143.59;;;4.54;100.00
64080;BME280;51042;49.696;10.808;2022-11-15T05:06:35;98144.84;;;4.46;100.00
64080;BME280;51042;49.696;10.808;2022-11-15T05:09:00;98139.41;;;4.42;100.00
64080;BME280;51042;49.696;10.808;2022-11-15T05:11:26;98137.81;;;4.52;100.00
64080;BME280;51042;49.696;10.808;2022-11-15T05:13:52;98136.97;;;4.59;100.00
64080;BME280;51042;49.696;10.808;2022-11-15T05:16:18;98140.44;;;4.59;100.00
64080;BME280;51042;49.696;10.808;2022-11-15T05:18:43;98128.03;;;4.58;100.00
64080;BME280;51042;49.696;10.808;2022-11-15T05:21:10;98140.50;;;4.52;100.00
64080;BME280;51042;49.696;10.808;2022-11-15T05:23:37;98132.78;;;4.47;100.00
64080;BME280;51042;49.696;10.808;2022-11-15T05:26:02;98135.91;;;4.42;100.00
64080;BME280;51042;49.696;10.808;2022-11-15T05:28:29;98124.28;;;4.41;100.00
64080;BME280;51042;49.696;10.808;2022-11-15T05:31:28;98117.25;;;4.47;100.00
64080;BME280;51042;49.696;10.808;2022-11-15T05:33:48;98122.28;;;4.49;100.00
64080;BME280;51042;49.696;10.808;2022-11-15T05:39:01;98114.19;;;4.45;100.00
64080;BME280;51042;49.696;10.808;2022-11-15T05:41:32;98116.13;;;4.45;100.00
64080;BME280;51042;49.696;10.808;2022-11-15T05:44:02;98106.81;;;4.46;100.00
64080;BME280;51042;49.696;10.808;2022-11-15T05:46:31;98110.28;;;4.46;100.00
64080;BME280;51042;49.696;10.808;2022-11-15T05:48:58;98100.50;;;4.56;100.00
64080;BME280;51042;49.696;10.808;2022-11-15T05:51:24;98095.00;;;4.63;100.00
64080;BME280;51042;49.696;10.808;2022-11-15T05:53:52;98094.94;;;4.70;100.00
64080;BME280;51042;49.696;10.808;2022-11-15T05:56:21;98089.06;;;4.75;100.00
64080;BME280;51042;49.696;10.808;2022-11-15T05:58:47;98093.31;;;4.76;100.00
64080;BME280;51042;49.696;10.808;2022-11-15T06:01:12;98122.13;;;4.67;100.00
64080;BME280;51042;49.696;10.808;2022-11-15T06:03:38;98117.97;;;4.55;100.00
64080;BME280;51042;49.696;10.808;2022-11-15T06:06:04;98137.50;;;4.39;100.00
64080;BME280;51042;49.696;10.808;2022-11-15T06:08:29;98125.16;;;4.31;100.00
64080;BME280;51042;49.696;10.808;2022-11-15T06:10:54;98133.38;;;4.21;100.00
64080;BME280;51042;49.696;10.808;2022-11-15T06:13:20;98135.34;;;4.13;100.00
64080;BME280;51042;49.696;10.808;2022-11-15T06:15:45;98133.50;;;4.03;100.00
64080;BME280;51042;49.696;10.808;2022-11-15T06:18:10;98150.63;;;3.93;100.00
64080;BME280;51042;49.696;10.808;2022-11-15T06:20:36;98147.94;;;3.82;100.00
64080;BME280;51042;49.696;10.808;2022-11-15T06:23:02;98145.28;;;3.79;100.00
64080;BME280;51042;49.696;10.808;2022-11-15T06:25:29;98135.97;;;3.76;100.00
64080;BME280;51042;49.696;10.808;2022-11-15T06:27:56;98132.91;;;3.74;100.00
64080;BME280;51042;49.696;10.808;2022-11-15T06:30:23;98123.56;;;3.79;100.00
64080;BME280;51042;49.696;10.808;2022-11-15T06:32:49;98127.78;;;3.83;100.00
64080;BME280;51042;49.696;10.808;2022-11-15T06:35:15;98111.88;;;3.85;100.00
64080;BME280;51042;49.696;10.808;2022-11-15T06:37:41;98113.44;;;3.86;100.00
64080;BME280;51042;49.696;10.808;2022-11-15T06:40:07;98111.09;;;3.88;100.00
64080;BME280;51042;49.696;10.808;2022-11-15T06:42:34;98120.00;;;3.92;100.00
64080;BME280;51042;49.696;10.808;2022-11-15T06:44:59;98118.41;;;3.95;100.00
64080;BME280;51042;49.696;10.808;2022-11-15T06:47:24;98137.41;;;3.95;100.00
64080;BME280;51042;49.696;10.808;2022-11-15T06:49:50;98132.38;;;3.93;100.00
64080;BME280;51042;49.696;10.808;2022-11-15T06:52:15;98137.06;;;3.93;100.00
64080;BME280;51042;49.696;10.808;2022-11-15T06:54:43;98135.88;;;3.94;100.00
64080;BME280;51042;49.696;10.808;2022-11-15T06:57:08;98121.50;;;3.93;100.00
64080;BME280;51042;49.696;10.808;2022-11-15T06:59:34;98118.06;;;3.93;100.00
64080;BME280;51042;49.696;10.808;2022-11-15T07:01:59;98115.69;;;3.98;100.00
64080;BME280;51042;49.696;10.808;2022-11-15T07:04:24;98116.34;;;4.17;100.00
64080;BME280;51042;49.696;10.808;2022-11-15T07:06:49;98110.69;;;4.41;100.00
64080;BME280;51042;49.696;10.808;2022-11-15T07:09:15;98114.47;;;4.58;100.00
64080;BME280;51042;49.696;10.808;2022-11-15T07:11:40;98114.31;;;4.72;100.00
64080;BME280;51042;49.696;10.808;2022-11-15T07:14:05;98123.13;;;4.83;100.00
64080;BME280;51042;49.696;10.808;2022-11-15T07:16:31;98120.34;;;4.90;100.00
64080;BME280;51042;49.696;10.808;2022-11-15T07:18:56;98127.22;;;5.02;100.00
64080;BME280;51042;49.696;10.808;2022-11-15T07:21:22;98134.53;;;5.09;100.00
64080;BME280;51042;49.696;10.808;2022-11-15T07:23:47;98140.69;;;5.13;100.00
64080;BME280;51042;49.696;10.808;2022-11-15T07:26:12;98128.53;;;5.24;100.00
64080;BME280;51042;49.696;10.808;2022-11-15T07:28:38;98133.00;;;5.42;100.00
64080;BME280;51042;49.696;10.808;2022-11-15T07:31:03;98126.97;;;5.57;100.00
64080;BME280;51042;49.696;10.808;2022-11-15T07:33:30;98136.16;;;5.70;99.81
64080;BME280;51042;49.696;10.808;2022-11-15T07:36:00;98126.66;;;5.82;99.43
64080;BME280;51042;49.696;10.808;2022-11-15T07:38:29;98126.94;;;5.91;98.03
64080;BME280;51042;49.696;10.808;2022-11-15T07:40:58;98125.28;;;5.97;97.48
64080;BME280;51042;49.696;10.808;2022-11-15T07:43:25;98132.91;;;6.09;96.65
64080;BME280;51042;49.696;10.808;2022-11-15T07:45:52;98126.84;;;6.25;96.16
64080;BME280;51042;49.696;10.808;2022-11-15T07:48:18;98126.91;;;6.45;95.38
64080;BME280;51042;49.696;10.808;2022-11-15T07:50:43;98130.91;;;6.64;94.49
64080;BME280;51042;49.696;10.808;2022-11-15T07:53:09;98124.78;;;6.79;93.46
64080;BME280;51042;49.696;10.808;2022-11-15T07:55:35;98124.13;;;6.95;91.91
64080;BME280;51042;49.696;10.808;2022-11-15T07:58:01;98126.16;;;7.11;90.75
64080;BME280;51042;49.696;10.808;2022-11-15T08:00:28;98117.78;;;7.21;89.32
64080;BME280;51042;49.696;10.808;2022-11-15T08:03:00;98118.28;;;7.36;89.68
64080;BME280;51042;49.696;10.808;2022-11-15T08:05:33;98128.75;;;7.57;88.03
64080;BME280;51042;49.696;10.808;2022-11-15T08:07:59;98129.09;;;7.79;86.82
64080;BME280;51042;49.696;10.808;2022-11-15T08:10:26;98123.66;;;7.95;86.03
64080;BME280;51042;49.696;10.808;2022-11-15T08:12:58;98121.03;;;8.08;84.58
64080;BME280;51042;49.696;10.808;2022-11-15T08:15:28;98115.75;;;8.17;84.02
64080;BME280;51042;49.696;10.808;2022-11-15T08:17:55;98112.72;;;8.31;83.24
64080;BME280;51042;49.696;10.808;2022-11-15T08:20:26;98105.47;;;8.41;83.23
64080;BME280;51042;49.696;10.808;2022-11-15T08:22:56;98100.84;;;8.54;82.19
64080;BME280;51042;49.696;10.808;2022-11-15T08:25:25;98092.13;;;8.75;81.99
64080;BME280;51042;49.696;10.808;2022-11-15T08:27:52;98093.56;;;8.80;78.96
64080;BME280;51042;49.696;10.808;2022-11-15T08:30:18;98100.22;;;8.79;80.26
64080;BME280;51042;49.696;10.808;2022-11-15T08:32:43;98098.75;;;8.90;78.43
64080;BME280;51042;49.696;10.808;2022-11-15T08:35:09;98098.81;;;9.03;77.96
64080;BME280;51042;49.696;10.808;2022-11-15T08:37:34;98095.41;;;8.99;78.10
64080;BME280;51042;49.696;10.808;2022-11-15T08:40:00;98085.50;;;9.18;77.88
64080;BME280;51042;49.696;10.808;2022-11-15T08:42:26;98085.28;;;9.25;76.18
64080;BME280;51042;49.696;10.808;2022-11-15T08:44:51;98082.03;;;9.30;76.09
64080;BME280;51042;49.696;10.808;2022-11-15T08:47:17;98083.03;;;9.07;75.68
64080;BME280;51042;49.696;10.808;2022-11-15T08:49:42;98080.06;;;9.01;76.45
64080;BME280;51042;49.696;10.808;2022-11-15T08:52:07;98080.94;;;8.98;76.43
64080;BME280;51042;49.696;10.808;2022-11-15T08:54:33;98080.94;;;8.98;76.50
64080;BME280;51042;49.696;10.808;2022-11-15T08:56:58;98075.53;;;9.11;76.96
64080;BME280;51042;49.696;10.808;2022-11-15T08:59:23;98069.13;;;9.01;77.01
64080;BME280;51042;49.696;10.808;2022-11-15T09:01:49;98071.81;;;8.89;76.42
64080;BME280;51042;49.696;10.808;2022-11-15T09:04:14;98070.53;;;8.93;75.69
64080;BME280;51042;49.696;10.808;2022-11-15T09:06:40;98063.81;;;9.11;75.99
64080;BME280;51042;49.696;10.808;2022-11-15T09:09:05;98065.09;;;9.35;76.22
64080;BME280;51042;49.696;10.808;2022-11-15T09:11:30;98064.28;;;9.22;75.06
64080;BME280;51042;49.696;10.808;2022-11-15T09:13:56;98052.50;;;9.09;75.96
64080;BME280;51042;49.696;10.808;2022-11-15T09:16:21;98053.03;;;9.04;75.91
64080;BME280;51042;49.696;10.808;2022-11-15T09:18:46;98056.88;;;9.06;77.12
64080;BME280;51042;49.696;10.808;2022-11-15T09:21:12;98059.53;;;9.10;75.98
64080;BME280;51042;49.696;10.808;2022-11-15T09:23:37;98055.16;;;8.83;nan
64080;BME280;51042;49.696;10.808;2022-11-15T09:26:03;98055.34;;;9.05;75.72
64080;BME280;51042;49.696;10.808;2022-11-15T09:28:29;98053.31;;;9.22;75.29
64080;BME280;51042;49.696;10.808;2022-11-15T09:30:56;98052.81;;;9.39;75.42
64080;BME280;51042;49.696;10.808;2022-11-15T09:33:23;98056.81;;;9.64;74.72
64080;BME280;51042;49.696;10.808;2022-11-15T09:35:49;98050.22;;;10.12;72.75
64080;BME280;51042;49.696;10.808;2022-11-15T09:38:14;98044.06;;;10.08;72.10
64080;BME280;51042;49.696;10.808;2022-11-15T09:40:40;98054.81;;;10.02;72.02
64080;BME280;51042;49.696;10.808;2022-11-15T09:46:04;98046.34;;;10.82;71.17
64080;BME280;51042;49.696;10.808;2022-11-15T09:48:56;98045.97;;;10.71;72.29
64080;BME280;51042;49.696;10.808;2022-11-15T09:51:32;98042.66;;;10.41;73.34
64080;BME280;51042;49.696;10.808;2022-11-15T09:56:46;98040.16;;;10.90;71.21
64080;BME280;51042;49.696;10.808;2022-11-15T10:02:25;98036.75;;;10.64;70.33
64080;BME280;51042;49.696;10.808;2022-11-15T10:05:16;98026.47;;;11.12;69.74
64080;BME280;51042;49.696;10.808;2022-11-15T10:10:46;98027.66;;;11.33;68.45
64080;BME280;51042;49.696;10.808;2022-11-15T10:13:20;98018.81;;;11.69;68.33
64080;BME280;51042;49.696;10.808;2022-11-15T10:15:49;98020.69;;;11.72;66.62
64080;BME280;51042;49.696;10.808;2022-11-15T10:20:58;98000.59;;;12.33;64.99
64080;BME280;51042;49.696;10.808;2022-11-15T10:23:25;98000.72;;;12.20;66.30
64080;BME280;51042;49.696;10.808;2022-11-15T10:25:53;97996.47;;;12.65;65.27
64080;BME280;51042;49.696;10.808;2022-11-15T10:28:27;97992.94;;;13.19;64.61
64080;BME280;51042;49.696;10.808;2022-11-15T10:30:55;97990.00;;;13.23;64.05
64080;BME280;51042;49.696;10.808;2022-11-15T10:46:42;97971.72;;;13.85;60.80
64080;BME280;51042;49.696;10.808;2022-11-15T10:51:45;97960.97;;;13.64;61.26
64080;BME280;51042;49.696;10.808;2022-11-15T10:54:12;97963.47;;;13.85;61.08
64080;BME280;51042;49.696;10.808;2022-11-15T10:56:52;97957.13;;;13.61;59.81
64080;BME280;51042;49.696;10.808;2022-11-15T10:59:42;97958.69;;;13.53;61.32
64080;BME280;51042;49.696;10.808;2022-11-15T11:05:00;97951.63;;;13.94;62.22
64080;BME280;51042;49.696;10.808;2022-11-15T11:07:28;97946.63;;;14.07;59.11
64080;BME280;51042;49.696;10.808;2022-11-15T11:10:05;97947.38;;;13.84;59.87
64080;BME280;51042;49.696;10.808;2022-11-15T11:12:44;97942.75;;;14.14;59.84
64080;BME280;51042;49.696;10.808;2022-11-15T11:15:11;97939.69;;;14.36;60.48
64080;BME280;51042;49.696;10.808;2022-11-15T11:17:57;97936.38;;;14.70;59.06
64080;BME280;51042;49.696;10.808;2022-11-15T11:23:03;97927.91;;;14.74;57.39
64080;BME280;51042;49.696;10.808;2022-11-15T11:33:46;97916.75;;;14.06;58.43
64080;BME280;51042;49.696;10.808;2022-11-15T11:39:24;97907.09;;;14.25;59.84
64080;BME280;51042;49.696;10.808;2022-11-15T11:47:51;97899.25;;;15.00;57.33
64080;BME280;51042;49.696;10.808;2022-11-15T11:50:28;97902.56;;;14.75;57.03
64080;BME280;51042;49.696;10.808;2022-11-15T11:52:58;97896.84;;;14.79;57.36
64080;BME280;51042;49.696;10.808;2022-11-15T11:55:34;97897.94;;;14.43;58.78
64080;BME280;51042;49.696;10.808;2022-11-15T12:00:54;97895.56;;;14.12;59.63
64080;BME280;51042;49.696;10.808;2022-11-15T12:06:15;97888.00;;;13.98;60.04
64080;BME280;51042;49.696;10.808;2022-11-15T12:11:48;97882.88;;;13.58;61.12
64080;BME280;51042;49.696;10.808;2022-11-15T12:14:19;97884.22;;;13.62;62.52
64080;BME280;51042;49.696;10.808;2022-11-15T12:16:51;97874.38;;;13.70;61.98
64080;BME280;51042;49.696;10.808;2022-11-15T12:19:16;97871.22;;;13.86;61.46
64080;BME280;51042;49.696;10.808;2022-11-15T12:21:43;97871.75;;;14.00;61.61
64080;BME280;51042;49.696;10.808;2022-11-15T12:24:21;97867.22;;;14.26;60.47
64080;BME280;51042;49.696;10.808;2022-11-15T12:26:53;97870.09;;;14.31;60.29
64080;BME280;51042;49.696;10.808;2022-11-15T12:29:38;97862.78;;;14.28;61.17
64080;BME280;51042;49.696;10.808;2022-11-15T12:32:50;97849.22;;;14.16;60.87
64080;BME280;51042;49.696;10.808;2022-11-15T12:34:58;97846.19;;;13.66;62.02
64080;BME280;51042;49.696;10.808;2022-11-15T12:40:04;97847.50;;;13.80;63.02
64080;BME280;51042;49.696;10.808;2022-11-15T12:45:44;97852.66;;;13.87;63.78
64080;BME280;51042;49.696;10.808;2022-11-15T12:50:56;97847.16;;;13.87;63.40
64080;BME280;51042;49.696;10.808;2022-11-15T13:06:52;97841.53;;;13.81;64.88
64080;BME280;51042;49.696;10.808;2022-11-15T13:12:02;97825.97;;;13.69;63.96
64080;BME280;51042;49.696;10.808;2022-11-15T13:22:53;97814.00;;;13.72;63.61
64080;BME280;51042;49.696;10.808;2022-11-15T13:30:51;97791.69;;;13.85;65.28
64080;BME280;51042;49.696;10.808;2022-11-15T13:33:34;97784.69;;;13.99;64.35
64080;BME280;51042;49.696;10.808;2022-11-15T13:36:34;97777.56;;;14.36;63.50
64080;BME280;51042;49.696;10.808;2022-11-15T13:41:27;97768.38;;;14.54;60.07
64080;BME280;51042;49.696;10.808;2022-11-15T13:43:55;97769.91;;;14.55;61.09
64080;BME280;51042;49.696;10.808;2022-11-15T13:49:01;97774.97;;;14.42;61.12
64080;BME280;51042;49.696;10.808;2022-11-15T13:51:43;97768.28;;;14.48;61.28
64080;BME280;51042;49.696;10.808;2022-11-15T13:54:26;97765.78;;;14.36;61.31
64080;BME280;51042;49.696;10.808;2022-11-15T13:56:58;97771.97;;;14.16;61.61
64080;BME280;51042;49.696;10.808;2022-11-15T13:59:34;97756.03;;;13.96;64.12
64080;BME280;51042;49.696;10.808;2022-11-15T14:02:14;97763.81;;;13.83;64.17
64080;BME280;51042;49.696;10.808;2022-11-15T14:04:49;97753.69;;;13.65;64.84
64080;BME280;51042;49.696;10.808;2022-11-15T14:07:21;97753.53;;;13.45;65.49
64080;BME280;51042;49.696;10.808;2022-11-15T14:09:49;97758.41;;;13.26;66.55
64080;BME280;51042;49.696;10.808;2022-11-15T14:12:22;97754.31;;;13.22;67.03
64080;BME280;51042;49.696;10.808;2022-11-15T14:14:51;97751.81;;;13.24;67.11
64080;BME280;51042;49.696;10.808;2022-11-15T14:17:21;97746.78;;;13.22;66.78
64080;BME280;51042;49.696;10.808;2022-11-15T14:25:54;97741.28;;;12.89;67.90
64080;BME280;51042;49.696;10.808;2022-11-15T14:30:50;97734.50;;;12.66;68.71
64080;BME280;51042;49.696;10.808;2022-11-15T14:33:22;97728.09;;;12.60;68.97
64080;BME280;51042;49.696;10.808;2022-11-15T14:35:48;97720.47;;;12.55;69.59
64080;BME280;51042;49.696;10.808;2022-11-15T14:38:14;97719.13;;;12.51;69.67
64080;BME280;51042;49.696;10.808;2022-11-15T14:40:39;97716.38;;;12.42;68.86
64080;BME280;51042;49.696;10.808;2022-11-15T14:43:07;97721.44;;;12.34;69.84
64080;BME280;51042;49.696;10.808;2022-11-15T14:45:34;97719.94;;;12.24;70.34
64080;BME280;51042;49.696;10.808;2022-11-15T14:47:59;97711.41;;;12.13;70.85
64080;BME280;51042;49.696;10.808;2022-11-15T14:50:25;97707.31;;;11.99;70.99
64080;BME280;51042;49.696;10.808;2022-11-15T14:52:51;97706.59;;;11.90;72.01
64080;BME280;51042;49.696;10.808;2022-11-15T14:55:29;97701.69;;;11.75;72.49
64080;BME280;51042;49.696;10.808;2022-11-15T14:57:59;97702.75;;;11.60;73.50
64080;BME280;51042;49.696;10.808;2022-11-15T15:00:27;97695.56;;;11.44;73.78
64080;BME280;51042;49.696;10.808;2022-11-15T15:02:53;97700.75;;;11.33;74.61
64080;BME280;51042;49.696;10.808;2022-11-15T15:05:29;97692.66;;;11.20;75.43
64080;BME280;51042;49.696;10.808;2022-11-15T15:07:58;97685.91;;;11.03;76.37
64080;BME280;51042;49.696;10.808;2022-11-15T15:10:23;97675.53;;;10.89;77.23
64080;BME280;51042;49.696;10.808;2022-11-15T15:12:50;97671.38;;;10.75;78.19
64080;BME280;51042;49.696;10.808;2022-11-15T15:15:24;97664.34;;;10.65;78.95
64080;BME280;51042;49.696;10.808;2022-11-15T15:17:50;97671.47;;;10.53;79.72
64080;BME280;51042;49.696;10.808;2022-11-15T15:20:16;97670.53;;;10.47;80.13
64080;BME280;51042;49.696;10.808;2022-11-15T15:22:41;97661.81;;;10.40;80.48
64080;BME280;51042;49.696;10.808;2022-11-15T15:27:46;97660.09;;;10.24;82.00